createdAt,value
2022-08-05T00:04:37.764Z,7.85
2022-08-05T00:10:41.780Z,8.13
2022-08-05T00:16:52.466Z,6.18
2022-08-05T00:22:57.453Z,6.95
2022-08-05T00:29:02.349Z,5.17
2022-08-05T00:35:07.742Z,6.10
2022-08-05T00:41:11.682Z,7.30
2022-08-05T00:47:16.423Z,8.80
2022-08-05T00:54:01.375Z,7.45
2022-08-05T00:59:44.671Z,7.67
2022-08-05T01:05:46.947Z,6.28
2022-08-05T01:11:54.516Z,6.83
2022-08-05T01:18:00.126Z,6.32
2022-08-05T01:24:14.437Z,7.30
2022-08-05T01:30:19.059Z,11.77
2022-08-05T01:36:42.311Z,32.40
2022-08-05T01:42:49.448Z,31.07
2022-08-05T01:48:51.541Z,21.45
2022-08-05T01:54:55.828Z,12.30
2022-08-05T02:00:58.447Z,10.83
2022-08-05T02:07:00.114Z,6.97
2022-08-05T02:13:15.820Z,7.43
2022-08-05T02:19:18.056Z,7.82
2022-08-05T02:25:24.449Z,9.20
2022-08-05T02:31:29.360Z,6.37
2022-08-05T02:37:36.872Z,7.95
2022-08-05T02:44:06.468Z,7.40
2022-08-05T02:50:02.500Z,7.72
2022-08-05T02:56:04.261Z,7.90
2022-08-05T03:02:09.806Z,6.70
2022-08-05T03:08:13.749Z,7.65
2022-08-05T03:14:18.235Z,9.10
2022-08-05T03:20:20.746Z,5.95
2022-08-05T03:26:31.353Z,6.57
2022-08-05T03:32:34.211Z,7.20
2022-08-05T03:38:39.903Z,6.35
2022-08-05T03:44:44.887Z,8.07
2022-08-05T03:50:59.030Z,6.95
2022-08-05T03:57:16.567Z,8.18
2022-08-05T04:03:28.261Z,8.33
2022-08-05T04:09:30.571Z,8.73
2022-08-05T04:15:38.259Z,8.13
2022-08-05T04:22:09.882Z,8.77
2022-08-05T04:28:13.398Z,8.30
2022-08-05T04:34:31.295Z,6.53
2022-08-05T04:40:39.487Z,8.65
2022-08-05T04:46:52.793Z,10.00
2022-08-05T04:52:54.297Z,10.80
2022-08-05T04:58:55.770Z,8.30
2022-08-05T05:05:02.710Z,9.17
2022-08-05T05:11:04.713Z,7.05
2022-08-05T05:17:07.521Z,6.83
2022-08-05T05:23:19.979Z,7.75
2022-08-05T05:29:21.659Z,15.40
2022-08-05T05:35:23.688Z,9.40
2022-08-05T05:41:26.609Z,8.60
2022-08-05T05:48:06.501Z,9.27
2022-08-05T05:54:04.955Z,7.03
2022-08-05T06:00:17.388Z,9.05
2022-08-05T06:06:18.820Z,7.30
2022-08-05T06:12:27.156Z,8.02
2022-08-05T06:18:30.797Z,9.07
2022-08-05T06:24:32.933Z,7.57
2022-08-05T06:30:36.187Z,8.35
2022-08-05T06:36:56.710Z,8.73
2022-08-05T06:42:59.156Z,6.32
2022-08-05T06:49:01.191Z,7.43
2022-08-05T06:55:03.133Z,7.78
2022-08-05T07:01:05.624Z,9.38
2022-08-05T07:07:08.025Z,7.53
2022-08-05T07:13:58.456Z,8.32
2022-08-05T07:20:31.195Z,8.03
2022-08-05T07:26:13.387Z,9.23
2022-08-05T07:32:15.491Z,7.35
2022-08-05T07:38:33.008Z,12.50
2022-08-05T07:44:36.683Z,8.68
2022-08-05T07:50:38.240Z,8.40
2022-08-05T07:57:01.306Z,7.88
2022-08-05T08:03:13.901Z,8.82
2022-08-05T08:09:19.672Z,8.63
2022-08-05T08:15:37.063Z,11.80
2022-08-05T08:21:42.721Z,9.00
2022-08-05T08:27:47.314Z,8.90
2022-08-05T08:33:51.607Z,7.75
2022-08-05T08:39:54.759Z,8.63
2022-08-05T08:45:56.944Z,8.85
2022-08-05T08:52:05.711Z,7.53
2022-08-05T08:58:15.375Z,6.82
2022-08-05T09:04:16.826Z,7.63
2022-08-05T09:10:18.794Z,7.97
2022-08-05T09:16:20.245Z,6.50
2022-08-05T09:22:30.861Z,10.53
2022-08-05T09:28:34.676Z,8.02
2022-08-05T09:34:46.523Z,7.18
2022-08-05T09:40:53.845Z,8.03
2022-08-05T09:47:06.568Z,6.00
2022-08-05T09:53:23.169Z,8.20
2022-08-05T09:59:34.789Z,6.28
2022-08-05T10:05:38.656Z,7.10
2022-08-05T10:11:40.410Z,6.03
2022-08-05T10:17:47.179Z,7.60
2022-08-05T10:23:59.557Z,5.93
2022-08-05T10:30:41.334Z,7.57
2022-08-05T10:36:25.999Z,5.82
2022-08-05T10:42:33.525Z,6.47
2022-08-05T10:48:58.086Z,5.93
2022-08-05T10:55:05.838Z,7.87
2022-08-05T11:01:07.369Z,9.63
2022-08-05T11:07:11.913Z,7.32
2022-08-05T11:13:33.393Z,8.43
2022-08-05T11:20:17.194Z,7.38
2022-08-05T11:26:10.065Z,6.80
2022-08-05T11:32:23.234Z,7.60
2022-08-05T11:38:45.387Z,8.98
2022-08-05T11:44:55.302Z,7.47
2022-08-05T11:50:57.912Z,7.82
2022-08-05T11:57:01.245Z,6.63
2022-08-05T12:03:29.086Z,5.53
2022-08-05T12:09:53.503Z,7.10
2022-08-05T12:15:56.022Z,8.77
2022-08-05T12:21:57.616Z,8.02
2022-08-05T12:28:01.111Z,8.25
2022-08-05T12:34:05.991Z,5.87
2022-08-05T12:40:10.724Z,9.15
2022-08-05T12:46:24.813Z,5.97
2022-08-05T12:52:38.163Z,7.13
2022-08-05T12:58:53.087Z,9.85
2022-08-05T13:04:57.428Z,7.27
2022-08-05T13:11:01.326Z,7.40
2022-08-05T13:17:03.227Z,7.33
2022-08-05T13:23:07.343Z,7.17
2022-08-05T13:29:09.071Z,7.10
2022-08-05T13:35:10.944Z,8.70
2022-08-05T13:41:13.525Z,9.00
2022-08-05T13:47:35.154Z,9.00
2022-08-05T13:53:47.772Z,6.53
2022-08-05T13:59:57.423Z,4.60
2022-08-05T14:06:26.349Z,3.97
2022-08-05T14:12:32.255Z,4.30
2022-08-05T14:18:34.454Z,4.18
2022-08-05T14:24:40.067Z,5.00
2022-08-05T14:30:46.331Z,5.37
2022-08-05T14:36:48.713Z,4.95
2022-08-05T14:42:50.444Z,5.83
2022-08-05T14:48:53.205Z,4.67
2022-08-05T14:54:56.140Z,4.10
2022-08-05T15:01:00.264Z,6.00
2022-08-05T15:07:02.921Z,6.50
2022-08-05T15:13:05.317Z,5.38
2022-08-05T15:19:23.492Z,5.13
2022-08-05T15:25:40.943Z,13.27
2022-08-05T15:31:52.924Z,18.02
2022-08-05T15:38:31.719Z,11.63
2022-08-05T15:44:16.432Z,13.13
2022-08-05T15:50:19.513Z,13.60
2022-08-05T15:56:26.573Z,15.07
2022-08-05T16:02:32.527Z,14.77
2022-08-05T16:08:34.375Z,13.35
2022-08-05T16:14:36.892Z,12.53
2022-08-05T16:20:38.366Z,8.88
2022-08-05T16:27:00.503Z,9.40
2022-08-05T16:33:02.636Z,11.75
2022-08-05T16:39:04.739Z,10.27
2022-08-05T16:46:06.068Z,8.33
2022-08-05T16:51:30.745Z,13.45
2022-08-05T16:57:53.215Z,10.33
2022-08-05T17:03:55.365Z,7.65
2022-08-05T17:09:59.145Z,6.40
2022-08-05T17:16:26.409Z,7.57
2022-08-05T17:22:25.101Z,6.32
2022-08-05T17:28:28.947Z,6.00
2022-08-05T17:34:32.189Z,6.80
2022-08-05T17:40:36.193Z,5.28
2022-08-05T17:46:41.529Z,4.27
2022-08-05T17:52:53.081Z,12.80
2022-08-05T17:58:56.481Z,7.23
2022-08-05T18:04:57.987Z,6.05
2022-08-05T18:11:00.574Z,4.45
2022-08-05T18:17:08.325Z,3.60
2022-08-05T18:23:30.081Z,5.32
2022-08-05T18:29:42.210Z,3.87
2022-08-05T18:35:59.713Z,5.35
2022-08-05T18:42:06.058Z,3.92
2022-08-05T18:48:11.346Z,6.47
2022-08-05T18:54:13.628Z,5.22
2022-08-05T19:00:20.102Z,3.90
2022-08-05T19:06:34.031Z,5.45
2022-08-05T19:12:36.395Z,4.68
2022-08-05T19:18:37.908Z,4.47
2022-08-05T19:24:54.384Z,3.60
2022-08-05T19:30:58.051Z,4.33
2022-08-05T19:36:59.603Z,5.43
2022-08-05T19:43:05.820Z,5.03
2022-08-05T19:49:16.394Z,4.90
2022-08-05T19:56:14.686Z,4.50
2022-08-05T20:01:39.729Z,4.60
2022-08-05T20:07:48.076Z,5.05
2022-08-05T20:13:59.134Z,4.00
2022-08-05T20:20:12.574Z,4.20
2022-08-05T20:26:16.057Z,4.47
2022-08-05T20:32:19.824Z,4.43
2022-08-05T20:38:26.742Z,6.00
2022-08-05T20:44:29.958Z,5.82
2022-08-05T20:50:32.444Z,4.83
2022-08-05T20:56:41.677Z,5.55
2022-08-05T21:02:45.002Z,5.33
2022-08-05T21:08:53.531Z,4.35
2022-08-05T21:14:54.998Z,5.78
2022-08-05T21:20:56.604Z,4.77
2022-08-05T21:26:58.948Z,7.28
2022-08-05T21:33:01.575Z,4.57
2022-08-05T21:39:03.634Z,5.10
2022-08-05T21:45:05.393Z,5.28
2022-08-05T21:52:16.706Z,6.07
2022-08-05T21:57:34.067Z,5.00
2022-08-05T22:03:52.254Z,5.40
2022-08-05T22:09:54.807Z,5.97
2022-08-05T22:16:05.018Z,6.60
2022-08-05T22:22:17.005Z,4.30
2022-08-05T22:28:29.873Z,5.88
2022-08-05T22:34:32.230Z,5.77
2022-08-05T22:40:33.705Z,5.47
2022-08-05T22:46:40.150Z,7.55
2022-08-05T22:52:42.053Z,6.20
2022-08-05T22:58:44.432Z,5.88
2022-08-05T23:04:51.150Z,7.37
2022-08-05T23:10:55.972Z,5.03
2022-08-05T23:17:16.143Z,5.60
2022-08-05T23:23:25.367Z,5.60
2022-08-05T23:29:34.643Z,7.00
2022-08-05T23:35:36.291Z,6.33
2022-08-05T23:41:41.131Z,6.45
2022-08-05T23:47:50.439Z,5.55
2022-08-05T23:54:01.322Z,6.20
